Ganado, Texas
Current Conditions -  °F | °C
As of 12:35 PM on Thursday 30 Oct 2014 (Local Time) from KARM Reporting Station
Overcast Overcast  
Wind Chill: 75°   Ceiling: 2600
Heat Index: 75°   Visibility: 10mi
Dew Point: 62°   Wind: 3mph
Humidity: 63%   Direction: 340°NNW
Pressure: 30.13"   Gusts: NA
Location:  29.04°N, 96.51°W
Report Text: KARM 301735Z AUTO 34003KT 10SM OVC026 24/16 A3013 RMK AO2 T02380164
Loading
Personal Weather Stations






























Interactive Weather Map
Tropical Storm Tracking
New forecast layout! Learn more

10-Day Weather Forecast

Advertisements
Track Severe Weather on mobile